createdAt,value
2023-01-06T00:01:21.442Z,6.95
2023-01-06T00:03:53.758Z,4.07
2023-01-06T00:06:27.383Z,4.97
2023-01-06T00:08:55.749Z,5.30
2023-01-06T00:11:24.271Z,6.35
2023-01-06T00:13:52.865Z,5.10
2023-01-06T00:16:21.452Z,4.32
2023-01-06T00:18:49.465Z,5.68
2023-01-06T00:21:16.921Z,4.47
2023-01-06T00:23:44.650Z,5.15
2023-01-06T00:26:12.344Z,4.22
2023-01-06T00:28:40.353Z,3.15
2023-01-06T00:31:13.736Z,3.22
2023-01-06T00:33:42.596Z,4.07
2023-01-06T00:36:12.146Z,3.15
2023-01-06T00:38:40.435Z,3.75
2023-01-06T00:41:30.477Z,4.80
2023-01-06T00:43:59.162Z,3.53
2023-01-06T00:46:29.529Z,4.13
2023-01-06T00:49:07.157Z,4.38
2023-01-06T00:51:37.950Z,3.47
2023-01-06T00:54:07.630Z,3.42
2023-01-06T00:56:43.024Z,4.88
2023-01-06T00:59:13.214Z,3.72
2023-01-06T01:01:41.820Z,3.25
2023-01-06T01:04:10.289Z,3.95
2023-01-06T01:06:38.480Z,3.30
2023-01-06T01:09:07.735Z,3.60
2023-01-06T01:11:54.483Z,3.65
2023-01-06T01:14:22.139Z,3.13
2023-01-06T01:16:49.601Z,3.22
2023-01-06T01:19:17.899Z,2.63
2023-01-06T01:21:45.840Z,4.05
2023-01-06T01:24:13.738Z,2.95
2023-01-06T01:26:41.132Z,2.72
2023-01-06T01:29:12.135Z,3.88
2023-01-06T01:31:39.596Z,3.80
2023-01-06T01:34:08.976Z,3.03
2023-01-06T01:36:36.313Z,2.50
2023-01-06T01:39:04.299Z,2.95
2023-01-06T01:41:31.654Z,3.47
2023-01-06T01:44:02.180Z,2.55
2023-01-06T01:46:35.050Z,3.80
2023-01-06T01:49:10.278Z,4.72
2023-01-06T01:51:41.070Z,2.50
2023-01-06T01:54:12.989Z,3.08
2023-01-06T01:56:45.898Z,2.63
2023-01-06T01:59:17.617Z,2.08
2023-01-06T02:01:46.080Z,3.00
2023-01-06T02:04:15.029Z,2.47
2023-01-06T02:06:42.897Z,3.08
2023-01-06T02:09:25.793Z,3.65
2023-01-06T02:11:53.676Z,2.20
2023-01-06T02:14:23.402Z,4.22
2023-01-06T02:17:11.763Z,3.00
2023-01-06T02:20:07.439Z,3.28
2023-01-06T02:22:56.392Z,3.72
2023-01-06T02:25:48.182Z,3.30
2023-01-06T02:29:01.788Z,4.60
2023-01-06T02:32:01.042Z,2.38
2023-01-06T02:34:44.050Z,3.38
2023-01-06T02:37:40.112Z,3.50
2023-01-06T02:40:26.064Z,3.35
2023-01-06T02:43:13.785Z,3.35
2023-01-06T02:45:43.761Z,3.65
2023-01-06T02:48:33.944Z,2.58
2023-01-06T02:51:08.512Z,2.15
2023-01-06T02:53:55.018Z,2.50
2023-01-06T02:56:28.899Z,2.45
2023-01-06T02:59:00.197Z,2.57
2023-01-06T03:01:41.838Z,2.30
2023-01-06T03:04:32.434Z,3.25
2023-01-06T03:07:03.392Z,4.10
2023-01-06T03:09:36.910Z,2.65
2023-01-06T03:12:10.640Z,3.30
2023-01-06T03:14:49.804Z,2.88
2023-01-06T03:17:17.491Z,2.25
2023-01-06T03:19:45.586Z,2.45
2023-01-06T03:22:14.190Z,3.15
2023-01-06T03:24:43.240Z,3.00
2023-01-06T03:27:11.140Z,3.13
2023-01-06T03:29:39.247Z,2.75
2023-01-06T03:32:18.535Z,2.92
2023-01-06T03:35:11.071Z,3.03
2023-01-06T03:37:51.984Z,2.20
2023-01-06T03:40:27.649Z,2.00
2023-01-06T03:43:15.937Z,2.85
2023-01-06T03:46:17.472Z,2.33
2023-01-06T03:48:56.859Z,2.47
2023-01-06T03:51:55.657Z,2.15
2023-01-06T03:54:52.293Z,2.75
2023-01-06T03:57:27.516Z,2.55
2023-01-06T03:59:58.819Z,2.45
2023-01-06T04:02:26.946Z,2.25
2023-01-06T04:05:12.994Z,3.05
2023-01-06T04:07:42.678Z,2.75
2023-01-06T04:10:12.548Z,2.17
2023-01-06T04:12:40.520Z,2.42
2023-01-06T04:15:16.557Z,2.22
2023-01-06T04:17:45.593Z,4.78
2023-01-06T04:20:16.034Z,2.50
2023-01-06T04:22:43.967Z,3.17
2023-01-06T04:25:11.854Z,2.63
2023-01-06T04:27:39.588Z,2.00
2023-01-06T04:30:08.121Z,2.28
2023-01-06T04:32:35.858Z,2.40
2023-01-06T04:35:03.302Z,5.03
2023-01-06T04:37:30.904Z,2.40
2023-01-06T04:39:58.204Z,2.35
2023-01-06T04:42:25.821Z,2.65
2023-01-06T04:44:53.183Z,3.33
2023-01-06T04:47:21.692Z,1.90
2023-01-06T04:49:49.606Z,2.30
2023-01-06T04:52:18.369Z,2.08
2023-01-06T04:54:46.637Z,2.80
2023-01-06T04:57:14.308Z,2.70
2023-01-06T04:59:41.937Z,2.53
2023-01-06T05:02:09.550Z,2.15
2023-01-06T05:04:46.979Z,2.60
2023-01-06T05:07:15.661Z,2.28
2023-01-06T05:09:42.931Z,1.75
2023-01-06T05:12:10.555Z,2.25
2023-01-06T05:14:37.994Z,2.33
2023-01-06T05:17:06.046Z,2.10
2023-01-06T05:19:33.264Z,2.78
2023-01-06T05:22:00.963Z,1.50
2023-01-06T05:24:28.475Z,2.47
2023-01-06T05:26:56.299Z,2.45
2023-01-06T05:29:23.787Z,2.63
2023-01-06T05:31:51.520Z,2.33
2023-01-06T05:34:18.906Z,2.53
2023-01-06T05:36:46.588Z,2.38
2023-01-06T05:39:14.000Z,1.80
2023-01-06T05:41:41.645Z,2.28
2023-01-06T05:44:09.235Z,2.33
2023-01-06T05:46:36.927Z,2.00
2023-01-06T05:49:04.741Z,2.33
2023-01-06T05:51:32.545Z,1.92
2023-01-06T05:54:00.351Z,3.50
2023-01-06T05:56:28.017Z,2.00
2023-01-06T05:58:56.077Z,2.67
2023-01-06T06:01:31.373Z,1.80
2023-01-06T06:03:59.144Z,2.22
2023-01-06T06:06:28.658Z,3.85
2023-01-06T06:08:55.984Z,2.25
2023-01-06T06:11:24.150Z,2.03
2023-01-06T06:13:53.979Z,1.45
2023-01-06T06:16:24.928Z,2.03
2023-01-06T06:18:55.057Z,1.48
2023-01-06T06:21:26.168Z,3.00
2023-01-06T06:23:54.469Z,2.20
2023-01-06T06:26:23.415Z,2.97
2023-01-06T06:28:51.241Z,2.33
2023-01-06T06:31:28.305Z,4.20
2023-01-06T06:33:57.723Z,2.30
2023-01-06T06:36:26.127Z,4.93
2023-01-06T06:38:54.675Z,2.05
2023-01-06T06:41:23.661Z,5.53
2023-01-06T06:43:52.038Z,3.83
2023-01-06T06:46:20.917Z,5.57
2023-01-06T06:48:50.019Z,7.75
2023-01-06T06:51:19.950Z,4.53
2023-01-06T06:53:47.849Z,3.45
2023-01-06T06:56:16.472Z,3.40
2023-01-06T06:58:43.917Z,2.78
2023-01-06T07:01:14.644Z,3.40
2023-01-06T07:03:42.060Z,3.03
2023-01-06T07:06:14.937Z,3.67
2023-01-06T07:08:44.270Z,2.85
2023-01-06T07:11:12.169Z,7.63
2023-01-06T07:13:39.606Z,2.35
2023-01-06T07:16:07.589Z,5.30
2023-01-06T07:18:35.105Z,7.43
2023-01-06T07:21:03.003Z,6.10
2023-01-06T07:23:30.638Z,7.38
2023-01-06T07:26:00.019Z,8.63
2023-01-06T07:28:30.571Z,3.90
2023-01-06T07:30:58.732Z,13.38
2023-01-06T07:33:26.534Z,14.85
2023-01-06T07:35:55.884Z,9.07
2023-01-06T07:38:24.226Z,16.73
2023-01-06T07:40:52.000Z,13.65
2023-01-06T07:43:19.555Z,21.17
2023-01-06T07:45:48.736Z,18.17
2023-01-06T07:48:17.186Z,10.38
2023-01-06T07:50:44.798Z,12.98
2023-01-06T07:53:12.751Z,14.23
2023-01-06T07:55:40.410Z,11.00
2023-01-06T07:58:09.200Z,18.08
2023-01-06T08:00:37.639Z,14.35
2023-01-06T08:03:07.241Z,9.75
2023-01-06T08:05:39.143Z,9.02
2023-01-06T08:08:06.514Z,17.48
2023-01-06T08:10:34.169Z,11.13
2023-01-06T08:13:01.623Z,9.40
2023-01-06T08:15:29.618Z,10.48
2023-01-06T08:17:57.029Z,13.18
2023-01-06T08:20:24.699Z,16.00
2023-01-06T08:22:52.155Z,10.77
2023-01-06T08:25:19.820Z,13.50
2023-01-06T08:27:47.511Z,19.38
2023-01-06T08:30:19.963Z,14.68
2023-01-06T08:32:48.993Z,11.95
2023-01-06T08:35:16.657Z,9.70
2023-01-06T08:37:44.009Z,6.40
2023-01-06T08:40:11.953Z,11.52
2023-01-06T08:42:40.528Z,10.77
2023-01-06T08:45:08.910Z,11.43
2023-01-06T08:47:36.558Z,16.98
2023-01-06T08:50:04.419Z,10.30
2023-01-06T08:52:32.106Z,14.35
2023-01-06T08:54:59.993Z,7.25
2023-01-06T08:57:27.437Z,9.20
2023-01-06T08:59:55.093Z,6.05
2023-01-06T09:02:22.536Z,7.72
2023-01-06T09:04:50.357Z,8.35
2023-01-06T09:07:17.754Z,11.63
2023-01-06T09:09:45.332Z,10.63
2023-01-06T09:12:12.699Z,9.80
2023-01-06T09:14:40.487Z,9.85
2023-01-06T09:17:07.989Z,6.28
2023-01-06T09:19:35.579Z,10.48
2023-01-06T09:22:03.117Z,9.18
2023-01-06T09:24:31.394Z,13.63
2023-01-06T09:26:59.010Z,8.40
2023-01-06T09:29:26.639Z,6.40
2023-01-06T09:31:54.241Z,7.07
2023-01-06T09:34:22.116Z,9.90
2023-01-06T09:36:49.473Z,8.02
2023-01-06T09:39:19.338Z,8.65
2023-01-06T09:41:57.444Z,9.20
2023-01-06T09:44:31.487Z,13.15
2023-01-06T09:47:00.714Z,6.70
2023-01-06T09:49:38.462Z,8.45
2023-01-06T09:52:37.630Z,6.95
2023-01-06T09:55:20.650Z,8.82
2023-01-06T09:57:58.892Z,8.30
2023-01-06T10:00:32.656Z,9.77
2023-01-06T10:03:00.204Z,7.40
2023-01-06T10:05:49.160Z,9.32
2023-01-06T10:08:23.782Z,6.68
2023-01-06T10:11:23.384Z,9.13
2023-01-06T10:14:17.959Z,8.65
2023-01-06T10:17:16.658Z,14.10
2023-01-06T10:20:02.626Z,5.78
2023-01-06T10:22:45.280Z,6.05
2023-01-06T10:25:19.886Z,11.32
2023-01-06T10:27:56.184Z,8.57
2023-01-06T10:30:45.084Z,12.27
2023-01-06T10:33:46.327Z,6.68
2023-01-06T10:36:16.471Z,9.45
2023-01-06T10:38:48.918Z,10.85
2023-01-06T10:41:50.351Z,14.50
2023-01-06T10:44:18.803Z,13.20
2023-01-06T10:46:48.842Z,12.30
2023-01-06T10:49:18.896Z,7.13
2023-01-06T10:51:53.810Z,10.20
2023-01-06T10:54:27.542Z,9.23
2023-01-06T10:57:04.572Z,13.82
2023-01-06T10:59:32.349Z,7.95
2023-01-06T11:01:59.914Z,9.32
2023-01-06T11:04:28.484Z,8.65
2023-01-06T11:06:58.606Z,13.95
2023-01-06T11:09:31.769Z,7.47
2023-01-06T11:12:27.002Z,10.02
2023-01-06T11:15:07.617Z,10.77
2023-01-06T11:17:36.263Z,11.73
2023-01-06T11:20:28.847Z,6.90
2023-01-06T11:23:13.622Z,7.05
2023-01-06T11:25:41.298Z,7.38
2023-01-06T11:28:17.554Z,12.00
2023-01-06T11:30:59.734Z,8.88
2023-01-06T11:33:29.455Z,6.07
2023-01-06T11:35:58.428Z,5.75
2023-01-06T11:38:25.965Z,13.02
2023-01-06T11:40:54.288Z,8.32
2023-01-06T11:43:31.196Z,11.38
2023-01-06T11:46:00.887Z,5.65
2023-01-06T11:48:36.097Z,7.07
2023-01-06T11:51:05.885Z,7.22
2023-01-06T11:53:35.283Z,6.97
2023-01-06T11:56:05.861Z,6.18
2023-01-06T11:58:44.068Z,7.35
2023-01-06T12:01:34.831Z,11.10
2023-01-06T12:04:51.787Z,11.10
2023-01-06T12:07:39.103Z,10.43
2023-01-06T12:10:25.813Z,12.70
2023-01-06T12:12:53.616Z,12.48
2023-01-06T12:15:22.505Z,19.90
2023-01-06T12:17:59.847Z,13.23
2023-01-06T12:20:27.275Z,10.60
2023-01-06T12:23:22.059Z,10.38
2023-01-06T12:26:07.890Z,16.27
2023-01-06T12:28:39.110Z,8.68
2023-01-06T12:31:16.683Z,11.98
2023-01-06T12:34:17.865Z,9.57
2023-01-06T12:36:51.699Z,9.55
2023-01-06T12:39:28.751Z,13.00
2023-01-06T12:42:43.727Z,11.50
2023-01-06T12:45:16.029Z,8.38
2023-01-06T12:47:54.218Z,10.90
2023-01-06T12:50:42.610Z,8.50
2023-01-06T12:53:20.814Z,11.80
2023-01-06T12:56:15.982Z,11.80
2023-01-06T12:59:11.845Z,9.07
2023-01-06T13:02:03.189Z,8.52
2023-01-06T13:04:51.787Z,14.45
2023-01-06T13:07:48.487Z,11.10
2023-01-06T13:10:39.923Z,10.73
2023-01-06T13:13:38.958Z,13.70
2023-01-06T13:16:18.364Z,9.93
2023-01-06T13:19:15.655Z,14.18
2023-01-06T13:21:44.914Z,10.32
2023-01-06T13:24:37.863Z,11.85
2023-01-06T13:27:16.115Z,13.60
2023-01-06T13:30:11.468Z,12.35
2023-01-06T13:33:03.887Z,13.90
2023-01-06T13:35:43.898Z,17.23
2023-01-06T13:38:30.722Z,15.55
2023-01-06T13:41:02.559Z,17.25
2023-01-06T13:43:31.786Z,18.20
2023-01-06T13:46:04.872Z,18.30
2023-01-06T13:48:37.829Z,19.25
2023-01-06T13:51:09.573Z,16.90
2023-01-06T13:53:43.317Z,20.20
2023-01-06T13:56:13.959Z,20.85
2023-01-06T13:58:46.162Z,19.27
2023-01-06T14:01:19.798Z,16.73
2023-01-06T14:03:52.149Z,18.92
2023-01-06T14:06:22.837Z,19.77
2023-01-06T14:08:53.103Z,18.27
2023-01-06T14:11:34.190Z,22.52
2023-01-06T14:14:28.421Z,24.08
2023-01-06T14:16:57.307Z,19.80
2023-01-06T14:19:31.787Z,19.92
2023-01-06T14:22:22.956Z,16.95
2023-01-06T14:24:56.853Z,21.27
2023-01-06T14:27:47.722Z,16.25
2023-01-06T14:30:25.432Z,19.65
2023-01-06T14:32:52.977Z,19.77
2023-01-06T14:35:29.427Z,22.20
2023-01-06T14:38:04.417Z,18.38
2023-01-06T14:40:51.421Z,18.70
2023-01-06T14:43:33.398Z,19.88
2023-01-06T14:46:16.234Z,19.15
2023-01-06T14:48:49.739Z,15.77
2023-01-06T14:51:20.634Z,17.70
2023-01-06T14:54:04.156Z,21.42
2023-01-06T14:56:33.589Z,20.15
2023-01-06T14:59:10.309Z,15.60
2023-01-06T15:01:39.497Z,19.77
2023-01-06T15:04:21.820Z,24.60
2023-01-06T15:06:57.714Z,21.50
2023-01-06T15:09:25.557Z,19.98
2023-01-06T15:11:53.053Z,18.40
2023-01-06T15:14:26.150Z,22.83
2023-01-06T15:16:55.061Z,22.20
2023-01-06T15:19:23.458Z,16.42
2023-01-06T15:21:53.327Z,23.30
2023-01-06T15:24:35.469Z,20.42
2023-01-06T15:27:05.382Z,23.48
2023-01-06T15:29:33.712Z,21.70
2023-01-06T15:32:02.082Z,21.83
2023-01-06T15:34:37.725Z,21.83
2023-01-06T15:37:08.320Z,17.45
2023-01-06T15:39:38.581Z,17.88
2023-01-06T15:42:08.549Z,24.38
2023-01-06T15:44:38.899Z,21.02
2023-01-06T15:47:26.438Z,14.95
2023-01-06T15:50:01.620Z,21.88
2023-01-06T15:53:03.882Z,18.50
2023-01-06T15:55:36.511Z,18.25
2023-01-06T15:58:08.454Z,21.65
2023-01-06T16:00:48.041Z,22.45
2023-01-06T16:03:20.755Z,22.42
2023-01-06T16:05:51.060Z,23.48
2023-01-06T16:08:28.666Z,20.40
2023-01-06T16:11:37.035Z,16.30
2023-01-06T16:14:07.114Z,21.33
2023-01-06T16:16:42.896Z,21.65
2023-01-06T16:19:22.124Z,15.73
2023-01-06T16:21:54.363Z,24.10
2023-01-06T16:24:26.525Z,21.02
2023-01-06T16:26:58.370Z,23.17
2023-01-06T16:29:37.298Z,19.27
2023-01-06T16:32:30.849Z,24.60
2023-01-06T16:35:02.269Z,18.13
2023-01-06T16:37:34.166Z,21.42
2023-01-06T16:40:01.803Z,26.33
2023-01-06T16:42:40.663Z,23.05
2023-01-06T16:45:27.089Z,19.55
2023-01-06T16:47:55.538Z,19.55
2023-01-06T16:50:39.855Z,17.80
2023-01-06T16:53:10.485Z,20.75
2023-01-06T16:55:40.266Z,21.67
2023-01-06T16:58:22.585Z,20.65
2023-01-06T17:00:52.259Z,19.70
2023-01-06T17:03:19.887Z,17.75
2023-01-06T17:05:47.530Z,21.52
2023-01-06T17:08:18.711Z,21.08
2023-01-06T17:10:46.176Z,18.02
2023-01-06T17:13:34.801Z,19.10
2023-01-06T17:16:11.891Z,16.13
2023-01-06T17:18:52.467Z,17.85
2023-01-06T17:21:41.653Z,17.80
2023-01-06T17:24:14.979Z,23.27
2023-01-06T17:26:49.271Z,18.58
2023-01-06T17:29:20.007Z,20.83
2023-01-06T17:31:50.517Z,18.67
2023-01-06T17:34:21.925Z,17.13
2023-01-06T17:36:55.700Z,16.60
2023-01-06T17:39:26.839Z,21.33
2023-01-06T17:42:30.687Z,17.02
2023-01-06T17:45:00.424Z,17.80
2023-01-06T17:47:30.073Z,19.00
2023-01-06T17:50:01.349Z,17.15
2023-01-06T17:52:32.197Z,18.00
2023-01-06T17:55:32.244Z,18.73
2023-01-06T17:58:00.648Z,20.23
2023-01-06T18:00:31.873Z,16.45
2023-01-06T18:03:01.907Z,20.65
2023-01-06T18:05:33.312Z,15.43
2023-01-06T18:08:11.050Z,17.52
2023-01-06T18:10:42.732Z,16.45
2023-01-06T18:13:18.215Z,18.75
2023-01-06T18:15:48.212Z,17.38
2023-01-06T18:18:21.223Z,23.30
2023-01-06T18:21:14.696Z,19.00
2023-01-06T18:23:46.193Z,19.05
2023-01-06T18:26:40.806Z,16.67
2023-01-06T18:29:08.121Z,23.02
2023-01-06T18:31:38.371Z,19.30
2023-01-06T18:34:40.890Z,16.55
2023-01-06T18:37:08.572Z,20.55
2023-01-06T18:39:49.997Z,17.80
2023-01-06T18:42:31.922Z,15.95
2023-01-06T18:45:12.553Z,16.23
2023-01-06T18:47:42.793Z,18.88
2023-01-06T18:50:34.407Z,15.90
2023-01-06T18:53:14.692Z,18.33
2023-01-06T18:55:51.177Z,18.67
2023-01-06T18:58:38.930Z,18.48
2023-01-06T19:01:21.982Z,16.58
2023-01-06T19:03:49.801Z,15.43
2023-01-06T19:06:20.259Z,14.90
2023-01-06T19:08:50.696Z,14.95
2023-01-06T19:11:22.467Z,15.98
2023-01-06T19:13:55.152Z,19.27
2023-01-06T19:16:48.926Z,19.95
2023-01-06T19:19:24.731Z,17.13
2023-01-06T19:21:57.082Z,17.83
2023-01-06T19:24:40.477Z,17.58
2023-01-06T19:27:27.443Z,17.08
2023-01-06T19:30:01.267Z,16.40
2023-01-06T19:32:36.278Z,16.20
2023-01-06T19:35:22.232Z,15.80
2023-01-06T19:38:01.026Z,15.95
2023-01-06T19:40:31.854Z,15.27
2023-01-06T19:43:13.151Z,15.25
2023-01-06T19:45:41.411Z,16.50
2023-01-06T19:48:38.660Z,14.45
2023-01-06T19:51:12.467Z,16.20
2023-01-06T19:53:44.654Z,19.42
2023-01-06T19:56:24.407Z,14.25
2023-01-06T19:58:56.768Z,16.42
2023-01-06T20:01:24.761Z,15.48
2023-01-06T20:03:54.455Z,13.82
2023-01-06T20:06:24.019Z,14.27
2023-01-06T20:08:53.627Z,16.65
2023-01-06T20:11:23.353Z,12.02
2023-01-06T20:13:51.194Z,16.25
2023-01-06T20:16:19.156Z,14.13
2023-01-06T20:18:46.842Z,17.70
2023-01-06T20:21:14.600Z,14.95
2023-01-06T20:23:42.041Z,14.65
2023-01-06T20:26:09.926Z,16.40
2023-01-06T20:28:37.886Z,14.95
2023-01-06T20:31:05.782Z,14.00
2023-01-06T20:33:33.154Z,14.13
2023-01-06T20:36:00.897Z,16.30
2023-01-06T20:38:28.417Z,15.50
2023-01-06T20:40:56.053Z,11.65
2023-01-06T20:43:23.835Z,14.50
2023-01-06T20:45:51.401Z,14.68
2023-01-06T20:48:18.831Z,12.73
2023-01-06T20:50:46.431Z,12.32
2023-01-06T20:53:13.944Z,12.75
2023-01-06T20:55:41.786Z,13.65
2023-01-06T20:58:10.501Z,12.25
2023-01-06T21:00:38.168Z,12.90
2023-01-06T21:03:05.970Z,14.40
2023-01-06T21:05:34.175Z,10.93
2023-01-06T21:08:01.711Z,12.55
2023-01-06T21:10:29.474Z,15.23
2023-01-06T21:12:58.502Z,15.18
2023-01-06T21:15:26.925Z,18.05
2023-01-06T21:17:54.375Z,14.20
2023-01-06T21:20:22.064Z,14.15
2023-01-06T21:22:52.780Z,13.85
2023-01-06T21:25:20.770Z,18.45
2023-01-06T21:27:48.118Z,17.77
2023-01-06T21:30:17.802Z,16.17
2023-01-06T21:32:45.197Z,18.30
2023-01-06T21:35:12.901Z,14.38
2023-01-06T21:37:40.221Z,17.25
2023-01-06T21:40:09.116Z,20.90
2023-01-06T21:42:55.053Z,15.20
2023-01-06T21:45:22.912Z,12.82
2023-01-06T21:47:50.138Z,15.38
2023-01-06T21:50:18.273Z,14.75
2023-01-06T21:52:46.614Z,12.80
2023-01-06T21:55:14.403Z,13.90
2023-01-06T21:57:43.000Z,19.02
2023-01-06T22:00:11.077Z,18.83
2023-01-06T22:02:39.501Z,16.10
2023-01-06T22:05:07.761Z,13.52
2023-01-06T22:07:37.990Z,13.25
2023-01-06T22:10:07.215Z,15.05
2023-01-06T22:12:34.875Z,12.65
2023-01-06T22:15:03.673Z,14.52
2023-01-06T22:17:31.545Z,13.23
2023-01-06T22:19:59.198Z,13.98
2023-01-06T22:22:26.707Z,15.43
2023-01-06T22:24:56.317Z,14.10
2023-01-06T22:27:24.717Z,15.95
2023-01-06T22:29:52.334Z,16.90
2023-01-06T22:32:19.834Z,21.33
2023-01-06T22:34:48.258Z,24.33
2023-01-06T22:37:16.071Z,22.13
2023-01-06T22:39:45.390Z,21.27
2023-01-06T22:42:12.816Z,19.63
2023-01-06T22:44:41.450Z,21.42
2023-01-06T22:47:09.008Z,18.98
2023-01-06T22:49:36.558Z,16.20
2023-01-06T22:52:04.160Z,22.13
2023-01-06T22:54:31.746Z,19.33
2023-01-06T22:56:59.255Z,19.73
2023-01-06T22:59:27.348Z,13.48
2023-01-06T23:01:55.040Z,17.20
2023-01-06T23:04:22.925Z,17.25
2023-01-06T23:06:50.515Z,14.45
2023-01-06T23:09:18.133Z,14.65
2023-01-06T23:11:45.652Z,15.98
2023-01-06T23:14:13.578Z,13.88
2023-01-06T23:16:45.100Z,16.20
2023-01-06T23:19:18.426Z,13.80
2023-01-06T23:21:45.812Z,13.40
2023-01-06T23:24:14.180Z,15.23
2023-01-06T23:26:44.633Z,16.70
2023-01-06T23:29:13.333Z,14.85
2023-01-06T23:31:43.457Z,16.48
2023-01-06T23:34:14.299Z,13.52
2023-01-06T23:36:42.451Z,13.68
2023-01-06T23:39:13.215Z,11.35
2023-01-06T23:41:41.188Z,16.30
2023-01-06T23:44:14.702Z,13.50
2023-01-06T23:46:42.764Z,13.20
2023-01-06T23:49:13.168Z,12.82
2023-01-06T23:51:41.088Z,12.27
2023-01-06T23:54:10.977Z,14.57
2023-01-06T23:56:38.826Z,16.35
2023-01-06T23:59:11.440Z,12.85
